createdAt,value
2023-05-23T00:01:09.294Z,17.30
2023-05-23T00:03:37.506Z,17.10
2023-05-23T00:06:07.251Z,17.00
2023-05-23T00:08:35.053Z,17.00
2023-05-23T00:11:02.531Z,17.10
2023-05-23T00:13:30.163Z,17.00
2023-05-23T00:15:57.653Z,16.90
2023-05-23T00:18:25.473Z,17.00
2023-05-23T00:23:22.561Z,16.90
2023-05-23T00:25:53.010Z,16.90
2023-05-23T00:28:21.102Z,17.00
2023-05-23T00:30:51.904Z,16.90
2023-05-23T00:33:22.318Z,16.90
2023-05-23T00:35:50.147Z,16.90
2023-05-23T00:38:18.096Z,16.90
2023-05-23T00:40:45.757Z,16.80
2023-05-23T00:43:13.247Z,16.80
2023-05-23T00:45:40.888Z,16.70
2023-05-23T00:48:09.067Z,16.60
2023-05-23T00:50:36.711Z,16.80
2023-05-23T00:53:04.700Z,16.90
2023-05-23T00:55:34.692Z,17.10
2023-05-23T00:58:02.674Z,17.10
2023-05-23T01:00:30.422Z,17.10
2023-05-23T01:02:58.268Z,17.20
2023-05-23T01:05:25.839Z,17.10
2023-05-23T01:07:55.804Z,17.00
2023-05-23T01:10:31.087Z,16.80
2023-05-23T01:12:58.609Z,16.50
2023-05-23T01:15:51.657Z,16.40
2023-05-23T01:18:42.282Z,16.50
2023-05-23T01:21:22.355Z,16.40
2023-05-23T01:24:05.215Z,16.30
2023-05-23T01:26:51.977Z,16.20
2023-05-23T01:29:32.222Z,16.10
2023-05-23T01:32:01.049Z,16.10
2023-05-23T01:34:30.786Z,16.00
2023-05-23T01:36:59.624Z,16.10
2023-05-23T01:39:27.214Z,16.10
2023-05-23T01:41:54.951Z,16.00
2023-05-23T01:44:22.878Z,15.90
2023-05-23T01:46:50.547Z,15.80
2023-05-23T01:49:19.635Z,15.80
2023-05-23T01:51:47.775Z,15.80
2023-05-23T01:54:17.214Z,15.80
2023-05-23T01:56:45.034Z,15.90
2023-05-23T01:59:12.988Z,15.90
2023-05-23T02:01:41.636Z,16.00
2023-05-23T02:04:09.652Z,16.10
2023-05-23T02:06:37.216Z,16.10
2023-05-23T02:09:04.732Z,16.20
2023-05-23T02:11:32.517Z,16.10
2023-05-23T02:14:00.109Z,16.00
2023-05-23T02:16:27.633Z,16.00
2023-05-23T02:18:56.497Z,15.80
2023-05-23T02:21:24.575Z,15.80
2023-05-23T02:23:52.189Z,15.60
2023-05-23T02:26:19.736Z,15.80
2023-05-23T02:28:47.276Z,15.70
2023-05-23T02:31:17.286Z,15.60
2023-05-23T02:33:45.108Z,15.60
2023-05-23T02:36:12.955Z,15.90
2023-05-23T02:38:40.598Z,16.40
2023-05-23T02:41:08.125Z,16.60
2023-05-23T02:43:35.776Z,16.40
2023-05-23T02:46:03.606Z,16.00
2023-05-23T02:48:31.090Z,15.90
2023-05-23T02:50:58.701Z,16.10
2023-05-23T02:53:26.325Z,16.00
2023-05-23T02:55:54.095Z,15.90
2023-05-23T02:58:21.644Z,16.00
2023-05-23T03:00:49.153Z,16.30
2023-05-23T03:03:17.746Z,16.70
2023-05-23T03:05:45.516Z,16.90
2023-05-23T03:08:13.041Z,16.90
2023-05-23T03:10:40.853Z,16.90
2023-05-23T03:13:08.390Z,17.00
2023-05-23T03:15:36.439Z,17.10
2023-05-23T03:18:03.989Z,17.00
2023-05-23T03:20:32.478Z,16.60
2023-05-23T03:23:00.002Z,16.40
2023-05-23T03:25:27.430Z,16.20
2023-05-23T03:27:56.067Z,16.10
2023-05-23T03:30:23.610Z,16.00
2023-05-23T03:32:51.163Z,16.10
2023-05-23T03:35:18.648Z,16.30
2023-05-23T03:37:46.265Z,16.60
2023-05-23T03:40:13.899Z,16.90
2023-05-23T03:42:41.381Z,17.10
2023-05-23T03:45:10.530Z,17.20
2023-05-23T03:47:38.150Z,17.00
2023-05-23T03:50:06.559Z,16.90
2023-05-23T03:52:34.568Z,17.00
2023-05-23T03:55:02.312Z,17.20
2023-05-23T03:57:29.986Z,17.30
2023-05-23T03:59:57.472Z,17.40
2023-05-23T04:02:25.077Z,17.40
2023-05-23T04:04:54.185Z,17.40
2023-05-23T04:07:21.821Z,17.60
2023-05-23T04:09:49.281Z,17.70
2023-05-23T04:12:16.855Z,17.70
2023-05-23T04:14:44.338Z,17.70
2023-05-23T04:17:12.321Z,17.70
2023-05-23T04:19:40.062Z,17.80
2023-05-23T04:22:07.687Z,17.90
2023-05-23T04:24:35.178Z,18.00
2023-05-23T04:27:02.710Z,18.00
2023-05-23T04:29:31.810Z,17.90
2023-05-23T04:32:00.941Z,17.90
2023-05-23T04:34:29.187Z,18.00
2023-05-23T04:36:57.843Z,18.20
2023-05-23T04:39:26.171Z,18.50
2023-05-23T04:42:24.926Z,18.60
2023-05-23T04:45:16.062Z,18.70
2023-05-23T04:48:08.185Z,19.00
2023-05-23T04:50:47.864Z,19.00
2023-05-23T04:53:15.704Z,18.80
2023-05-23T04:55:43.626Z,18.60
2023-05-23T04:58:15.532Z,18.50
2023-05-23T05:00:43.593Z,18.50
2023-05-23T05:03:12.151Z,18.60
2023-05-23T05:05:43.729Z,18.60
2023-05-23T05:08:11.696Z,18.80
2023-05-23T05:10:41.788Z,19.00
2023-05-23T05:13:09.724Z,19.40
2023-05-23T05:15:49.628Z,20.10
2023-05-23T05:18:17.946Z,20.90
2023-05-23T05:20:47.295Z,21.60
2023-05-23T05:23:16.284Z,21.60
2023-05-23T05:25:43.931Z,21.80
2023-05-23T05:28:12.431Z,22.70
2023-05-23T05:30:46.724Z,22.90
2023-05-23T05:33:15.173Z,23.60
2023-05-23T05:35:43.461Z,23.70
2023-05-23T05:38:11.393Z,24.60
2023-05-23T05:40:40.420Z,24.90
2023-05-23T05:43:08.137Z,24.90
2023-05-23T05:45:35.982Z,26.20
2023-05-23T05:48:03.719Z,26.60
2023-05-23T05:50:31.350Z,26.50
2023-05-23T05:52:59.462Z,26.80
2023-05-23T05:55:26.978Z,26.60
2023-05-23T05:57:55.977Z,26.70
2023-05-23T06:00:25.291Z,26.80
2023-05-23T06:03:00.001Z,27.30
2023-05-23T06:05:50.361Z,27.20
2023-05-23T06:08:17.860Z,27.30
2023-05-23T06:10:45.394Z,27.60
2023-05-23T06:13:12.878Z,27.90
2023-05-23T06:15:43.269Z,28.30
2023-05-23T06:18:11.974Z,28.20
2023-05-23T06:20:40.645Z,27.90
2023-05-23T06:23:12.719Z,28.00
2023-05-23T06:25:40.936Z,28.10
2023-05-23T06:28:09.062Z,28.60
2023-05-23T06:30:38.640Z,28.50
2023-05-23T06:33:08.690Z,28.70
2023-05-23T06:35:36.330Z,28.40
2023-05-23T06:38:03.931Z,29.10
2023-05-23T06:40:31.514Z,29.20
2023-05-23T06:42:59.485Z,29.00
2023-05-23T06:45:40.721Z,29.30
2023-05-23T06:48:11.806Z,29.40
2023-05-23T06:50:41.052Z,29.40
2023-05-23T06:53:10.024Z,29.40
2023-05-23T06:55:37.586Z,29.50
2023-05-23T06:58:06.847Z,29.00
2023-05-23T07:00:36.260Z,29.50
2023-05-23T07:03:11.807Z,29.60
2023-05-23T07:05:41.382Z,29.50
2023-05-23T07:08:11.452Z,29.50
2023-05-23T07:10:41.987Z,29.50
2023-05-23T07:13:23.378Z,29.90
2023-05-23T07:15:50.962Z,29.90
2023-05-23T07:18:19.348Z,30.40
2023-05-23T07:20:46.955Z,30.50
2023-05-23T07:23:17.933Z,29.10
2023-05-23T07:26:00.986Z,29.10
2023-05-23T07:28:37.980Z,29.80
2023-05-23T07:31:05.707Z,30.00
2023-05-23T07:33:34.624Z,29.00
2023-05-23T07:36:04.844Z,29.40
2023-05-23T07:38:32.409Z,29.10
2023-05-23T07:41:10.797Z,29.60
2023-05-23T07:43:41.053Z,28.30
2023-05-23T07:46:08.823Z,29.00
2023-05-23T07:48:37.244Z,29.30
2023-05-23T07:51:04.918Z,28.40
2023-05-23T07:53:32.640Z,29.00
2023-05-23T07:56:00.509Z,29.10
2023-05-23T07:58:33.240Z,29.40
2023-05-23T08:01:00.781Z,29.30
2023-05-23T08:03:50.938Z,29.90
2023-05-23T08:06:24.219Z,29.80
2023-05-23T08:08:51.801Z,29.70
2023-05-23T08:11:19.310Z,29.40
2023-05-23T08:13:51.146Z,29.30
2023-05-23T08:16:47.981Z,28.60
2023-05-23T08:19:22.449Z,28.10
2023-05-23T08:21:50.593Z,27.90
2023-05-23T08:24:18.114Z,28.20
2023-05-23T08:26:45.941Z,27.70
2023-05-23T08:29:15.133Z,27.60
2023-05-23T08:31:43.826Z,27.60
2023-05-23T08:34:14.269Z,27.10
2023-05-23T08:36:43.232Z,26.90
2023-05-23T08:39:15.771Z,26.80
2023-05-23T08:41:50.506Z,27.00
2023-05-23T08:44:18.138Z,26.80
2023-05-23T08:46:53.436Z,27.10
2023-05-23T08:49:39.899Z,27.10
2023-05-23T08:52:12.804Z,27.40
2023-05-23T08:54:44.488Z,27.10
2023-05-23T08:57:14.104Z,26.60
2023-05-23T08:59:47.507Z,27.10
2023-05-23T09:02:16.896Z,26.90
2023-05-23T09:04:44.442Z,27.20
2023-05-23T09:07:19.073Z,27.20
2023-05-23T09:09:48.685Z,27.30
2023-05-23T09:12:17.219Z,27.30
2023-05-23T09:14:47.175Z,27.50
2023-05-23T09:17:22.486Z,27.20
2023-05-23T09:19:52.528Z,27.10
2023-05-23T09:22:39.783Z,27.10
2023-05-23T09:25:13.205Z,27.00
2023-05-23T09:27:45.722Z,26.80
2023-05-23T09:30:15.784Z,26.80
2023-05-23T09:32:44.792Z,27.00
2023-05-23T09:35:14.240Z,27.10
2023-05-23T09:37:47.093Z,27.30
2023-05-23T09:40:15.516Z,26.70
2023-05-23T09:42:54.028Z,27.10
2023-05-23T09:45:21.637Z,27.30
2023-05-23T09:47:53.021Z,27.10
2023-05-23T09:50:21.402Z,27.10
2023-05-23T09:52:49.371Z,27.40
2023-05-23T09:55:17.259Z,27.40
2023-05-23T09:57:45.845Z,27.20
2023-05-23T10:00:13.952Z,27.20
2023-05-23T10:03:13.140Z,27.20
2023-05-23T10:05:48.802Z,27.20
2023-05-23T10:08:20.362Z,27.10
2023-05-23T10:10:56.855Z,27.40
2023-05-23T10:13:28.692Z,27.60
2023-05-23T10:16:02.888Z,27.50
2023-05-23T10:18:33.087Z,27.00
2023-05-23T10:21:09.665Z,27.40
2023-05-23T10:23:38.125Z,26.90
2023-05-23T10:26:06.164Z,27.20
2023-05-23T10:28:33.697Z,27.30
2023-05-23T10:31:01.702Z,27.50
2023-05-23T10:33:36.703Z,27.30
2023-05-23T10:36:12.272Z,27.40
2023-05-23T10:39:06.113Z,27.60
2023-05-23T10:41:37.206Z,27.50
2023-05-23T10:44:32.212Z,27.00
2023-05-23T10:47:04.496Z,27.10
2023-05-23T10:49:46.053Z,27.40
2023-05-23T10:52:16.460Z,27.50
2023-05-23T10:54:52.719Z,27.60
2023-05-23T10:57:30.407Z,27.60
2023-05-23T10:59:57.914Z,27.90
2023-05-23T11:02:29.585Z,28.10
2023-05-23T11:05:24.602Z,27.90
2023-05-23T11:08:43.211Z,27.80
2023-05-23T11:11:14.972Z,27.50
2023-05-23T11:14:03.008Z,27.50
2023-05-23T11:16:33.718Z,27.60
2023-05-23T11:19:19.959Z,27.20
2023-05-23T11:21:53.896Z,27.20
2023-05-23T11:24:22.077Z,27.40
2023-05-23T11:27:02.799Z,27.70
2023-05-23T11:29:30.945Z,27.70
2023-05-23T11:31:58.604Z,27.80
2023-05-23T11:34:26.852Z,28.00
2023-05-23T11:36:57.563Z,28.10
2023-05-23T11:39:25.226Z,27.90
2023-05-23T11:42:05.355Z,27.80
2023-05-23T11:44:32.864Z,27.60
2023-05-23T11:47:05.202Z,27.90
2023-05-23T11:49:38.303Z,27.80
2023-05-23T11:52:07.348Z,28.00
2023-05-23T11:54:35.153Z,28.10
2023-05-23T11:57:03.733Z,27.60
2023-05-23T11:59:31.478Z,28.10
2023-05-23T12:01:58.944Z,28.00
2023-05-23T12:04:27.316Z,28.30
2023-05-23T12:06:55.101Z,28.50
2023-05-23T12:09:22.813Z,28.50
2023-05-23T12:11:50.581Z,28.10
2023-05-23T12:14:18.646Z,28.40
2023-05-23T12:16:49.285Z,28.20
2023-05-23T12:19:17.904Z,28.00
2023-05-23T12:21:47.221Z,28.00
2023-05-23T12:24:16.668Z,28.30
2023-05-23T12:26:53.568Z,28.60
2023-05-23T12:29:35.691Z,28.70
2023-05-23T12:32:05.324Z,28.70
2023-05-23T12:34:33.008Z,28.30
2023-05-23T12:39:36.770Z,28.30
2023-05-23T12:42:11.112Z,27.90
2023-05-23T12:44:41.521Z,28.10
2023-05-23T12:47:09.203Z,28.50
2023-05-23T12:49:37.237Z,28.60
2023-05-23T12:52:04.823Z,28.20
2023-05-23T12:54:32.305Z,28.30
2023-05-23T12:56:59.839Z,28.70
2023-05-23T12:59:27.279Z,28.80
2023-05-23T13:01:55.944Z,28.80
2023-05-23T13:04:23.501Z,28.80
2023-05-23T13:06:51.140Z,28.80
2023-05-23T13:09:18.643Z,28.80
2023-05-23T13:11:46.715Z,28.90
2023-05-23T13:14:14.192Z,28.80
2023-05-23T13:16:42.201Z,28.70
2023-05-23T13:19:09.701Z,28.10
2023-05-23T13:21:37.319Z,28.50
2023-05-23T13:24:05.059Z,28.70
2023-05-23T13:26:32.648Z,28.40
2023-05-23T13:29:00.548Z,28.60
2023-05-23T13:31:28.293Z,28.20
2023-05-23T13:33:56.010Z,28.20
2023-05-23T13:36:23.504Z,28.30
2023-05-23T13:38:51.236Z,28.70
2023-05-23T13:41:18.784Z,28.80
2023-05-23T13:43:46.335Z,28.90
2023-05-23T13:46:14.404Z,28.80
2023-05-23T13:48:41.993Z,28.40
2023-05-23T13:51:09.665Z,28.40
2023-05-23T13:53:37.439Z,28.70
2023-05-23T13:56:05.067Z,28.80
2023-05-23T13:58:33.016Z,28.40
2023-05-23T14:01:00.570Z,28.60
2023-05-23T14:03:28.166Z,28.70
2023-05-23T14:05:55.688Z,28.80
2023-05-23T14:08:23.176Z,28.80
2023-05-23T14:10:50.658Z,28.60
2023-05-23T14:13:18.288Z,28.80
2023-05-23T14:15:46.483Z,28.70
2023-05-23T14:18:14.097Z,28.50
2023-05-23T14:20:41.620Z,28.30
2023-05-23T14:23:09.203Z,28.40
2023-05-23T14:25:37.042Z,28.60
2023-05-23T14:28:04.540Z,28.50
2023-05-23T14:30:32.098Z,28.60
2023-05-23T14:32:59.622Z,28.70
2023-05-23T14:35:27.266Z,28.50
2023-05-23T14:37:54.746Z,28.60
2023-05-23T14:40:22.304Z,28.70
2023-05-23T14:42:49.737Z,28.80
2023-05-23T14:45:18.954Z,28.70
2023-05-23T14:47:46.889Z,28.60
2023-05-23T14:50:14.842Z,28.80
2023-05-23T14:52:42.332Z,28.70
2023-05-23T14:55:09.920Z,28.60
2023-05-23T14:57:37.457Z,28.80
2023-05-23T15:00:05.978Z,28.70
2023-05-23T15:02:33.600Z,28.80
2023-05-23T15:05:01.224Z,28.80
2023-05-23T15:07:28.811Z,28.90
2023-05-23T15:09:56.395Z,29.00
2023-05-23T15:12:24.011Z,28.60
2023-05-23T15:14:51.588Z,28.60
2023-05-23T15:17:20.513Z,28.70
2023-05-23T15:19:48.081Z,28.40
2023-05-23T15:22:31.194Z,28.30
2023-05-23T15:25:03.462Z,28.50
2023-05-23T15:27:30.924Z,28.60
2023-05-23T15:29:58.468Z,28.60
2023-05-23T15:32:26.165Z,28.60
2023-05-23T15:34:53.969Z,28.80
2023-05-23T15:37:21.502Z,29.00
2023-05-23T15:39:49.362Z,28.90
2023-05-23T15:42:16.838Z,29.00
2023-05-23T15:44:44.365Z,29.00
2023-05-23T15:47:11.885Z,28.80
2023-05-23T15:49:39.383Z,28.80
2023-05-23T15:52:06.815Z,28.90
2023-05-23T15:54:34.317Z,29.00
2023-05-23T15:57:01.771Z,29.00
2023-05-23T15:59:29.318Z,29.00
2023-05-23T16:01:57.312Z,29.20
2023-05-23T16:04:24.905Z,29.20
2023-05-23T16:06:52.396Z,29.20
2023-05-23T16:09:20.053Z,29.20
2023-05-23T16:11:47.544Z,29.20
2023-05-23T16:14:15.061Z,29.10
2023-05-23T16:16:42.644Z,29.00
2023-05-23T16:19:10.442Z,29.00
2023-05-23T16:21:37.927Z,29.00
2023-05-23T16:24:06.039Z,28.90
2023-05-23T16:26:33.648Z,28.90
2023-05-23T16:29:01.126Z,29.00
2023-05-23T16:31:29.871Z,28.90
2023-05-23T16:33:58.629Z,28.80
2023-05-23T16:36:26.930Z,28.80
2023-05-23T16:38:55.767Z,28.50
2023-05-23T16:41:23.511Z,28.60
2023-05-23T16:43:51.668Z,28.80
2023-05-23T16:46:20.655Z,28.60
2023-05-23T16:48:48.700Z,28.70
2023-05-23T16:51:16.344Z,28.60
2023-05-23T16:53:43.749Z,28.50
2023-05-23T16:56:11.224Z,28.10
2023-05-23T16:58:38.894Z,28.10
2023-05-23T17:01:07.719Z,28.20
2023-05-23T17:03:35.653Z,28.30
2023-05-23T17:06:03.390Z,28.30
2023-05-23T17:08:30.908Z,28.30
2023-05-23T17:10:58.416Z,28.40
2023-05-23T17:13:26.169Z,28.30
2023-05-23T17:15:53.806Z,28.10
2023-05-23T17:18:21.921Z,28.10
2023-05-23T17:20:49.458Z,28.10
2023-05-23T17:23:19.051Z,28.00
2023-05-23T17:25:46.660Z,27.90
2023-05-23T17:28:14.401Z,27.80
2023-05-23T17:30:41.980Z,27.60
2023-05-23T17:33:11.026Z,27.50
2023-05-23T17:35:38.751Z,27.50
2023-05-23T17:38:06.299Z,27.40
2023-05-23T17:40:33.933Z,27.40
2023-05-23T17:43:01.469Z,27.40
2023-05-23T17:45:28.952Z,27.30
2023-05-23T17:47:58.727Z,27.20
2023-05-23T17:50:26.354Z,27.10
2023-05-23T17:52:53.867Z,27.00
2023-05-23T17:55:21.565Z,26.80
2023-05-23T17:57:49.089Z,26.60
2023-05-23T18:00:17.640Z,26.50
2023-05-23T18:02:45.196Z,26.40
2023-05-23T18:05:13.108Z,26.30
2023-05-23T18:07:40.628Z,26.10
2023-05-23T18:10:09.385Z,26.00
2023-05-23T18:12:37.003Z,25.80
2023-05-23T18:15:04.986Z,25.50
2023-05-23T18:17:32.514Z,25.40
2023-05-23T18:20:00.226Z,25.20
2023-05-23T18:22:30.993Z,25.00
2023-05-23T18:24:58.815Z,24.90
2023-05-23T18:27:26.359Z,24.60
2023-05-23T18:29:53.828Z,24.50
2023-05-23T18:32:21.507Z,24.40
2023-05-23T18:34:49.170Z,24.30
2023-05-23T18:37:16.648Z,24.10
2023-05-23T18:39:44.163Z,23.90
2023-05-23T18:42:11.691Z,23.90
2023-05-23T18:44:39.166Z,23.70
2023-05-23T18:47:06.720Z,23.60
2023-05-23T18:49:34.261Z,23.40
2023-05-23T18:52:01.896Z,23.20
2023-05-23T18:54:29.352Z,23.00
2023-05-23T18:56:56.876Z,23.00
2023-05-23T18:59:24.326Z,22.90
2023-05-23T19:01:51.833Z,22.90
2023-05-23T19:04:19.411Z,22.80
2023-05-23T19:06:47.332Z,22.60
2023-05-23T19:09:14.863Z,22.60
2023-05-23T19:11:42.363Z,22.40
2023-05-23T19:14:10.003Z,22.30
2023-05-23T19:16:40.013Z,22.20
2023-05-23T19:19:07.615Z,22.20
2023-05-23T19:21:35.060Z,22.10
2023-05-23T19:24:07.417Z,22.00
2023-05-23T19:26:37.317Z,21.80
2023-05-23T19:29:06.224Z,21.80
2023-05-23T19:31:34.578Z,21.70
2023-05-23T19:34:02.256Z,21.60
2023-05-23T19:36:29.853Z,21.50
2023-05-23T19:38:57.490Z,21.50
2023-05-23T19:41:25.585Z,21.40
2023-05-23T19:43:54.405Z,21.40
2023-05-23T19:46:22.227Z,21.30
2023-05-23T19:48:50.032Z,21.30
2023-05-23T19:51:17.697Z,21.20
2023-05-23T19:53:45.202Z,21.20
2023-05-23T19:56:13.312Z,21.20
2023-05-23T19:58:41.262Z,21.20
2023-05-23T20:01:09.870Z,21.20
2023-05-23T20:03:38.564Z,21.10
2023-05-23T20:06:08.109Z,21.50
2023-05-23T20:08:35.986Z,21.90
2023-05-23T20:11:04.785Z,22.30
2023-05-23T20:13:33.979Z,22.40
2023-05-23T20:16:03.058Z,22.60
2023-05-23T20:18:31.484Z,22.70
2023-05-23T20:20:59.536Z,22.90
2023-05-23T20:23:29.529Z,23.00
2023-05-23T20:25:57.283Z,22.80
2023-05-23T20:28:24.747Z,22.80
2023-05-23T20:30:53.176Z,22.80
2023-05-23T20:33:21.895Z,22.80
2023-05-23T20:35:49.802Z,22.30
2023-05-23T20:38:19.918Z,22.30
2023-05-23T20:40:52.221Z,22.50
2023-05-23T20:43:22.329Z,22.50
2023-05-23T20:45:50.517Z,22.50
2023-05-23T20:48:18.087Z,22.50
2023-05-23T20:50:45.642Z,22.50
2023-05-23T20:53:13.196Z,22.50
2023-05-23T20:55:41.022Z,22.40
2023-05-23T20:58:08.816Z,22.40
2023-05-23T21:00:36.345Z,22.40
2023-05-23T21:03:04.011Z,22.30
2023-05-23T21:05:31.502Z,22.30
2023-05-23T21:07:58.993Z,22.40
2023-05-23T21:10:26.679Z,22.60
2023-05-23T21:12:54.268Z,22.70
2023-05-23T21:15:21.877Z,22.80
2023-05-23T21:17:51.417Z,22.80
2023-05-23T21:20:22.282Z,22.80
2023-05-23T21:22:49.863Z,22.80
2023-05-23T21:25:18.006Z,22.80
2023-05-23T21:27:45.591Z,22.60
2023-05-23T21:30:14.936Z,22.50
2023-05-23T21:32:43.705Z,22.50
2023-05-23T21:35:11.485Z,22.40
2023-05-23T21:37:39.069Z,22.30
2023-05-23T21:40:07.344Z,22.30
2023-05-23T21:42:34.931Z,22.20
2023-05-23T21:45:02.548Z,22.10
2023-05-23T21:47:30.254Z,22.10
2023-05-23T21:49:57.829Z,22.00
2023-05-23T21:52:25.458Z,21.90
2023-05-23T21:54:52.998Z,21.80
2023-05-23T21:57:20.523Z,21.70
2023-05-23T21:59:48.151Z,21.70
2023-05-23T22:02:15.818Z,21.70
2023-05-23T22:04:44.862Z,21.50
2023-05-23T22:07:12.525Z,21.40
2023-05-23T22:09:39.989Z,21.50
2023-05-23T22:12:07.768Z,21.40
2023-05-23T22:14:35.223Z,21.50
2023-05-23T22:17:04.286Z,21.50
2023-05-23T22:19:31.853Z,21.40
2023-05-23T22:22:00.744Z,21.40
2023-05-23T22:24:29.322Z,21.30
2023-05-23T22:26:58.313Z,21.20
2023-05-23T22:29:26.004Z,21.20
2023-05-23T22:31:53.527Z,21.20
2023-05-23T22:34:21.019Z,21.10
2023-05-23T22:36:48.538Z,21.10
2023-05-23T22:39:16.033Z,21.10
2023-05-23T22:41:43.617Z,21.20
2023-05-23T22:44:11.933Z,21.20
2023-05-23T22:46:42.829Z,21.20
2023-05-23T22:49:10.415Z,21.30
2023-05-23T22:51:37.815Z,21.30
2023-05-23T22:54:05.561Z,21.30
2023-05-23T22:56:33.220Z,21.30
2023-05-23T22:59:00.853Z,21.30
2023-05-23T23:01:28.381Z,21.30
2023-05-23T23:03:56.130Z,21.30
2023-05-23T23:06:23.697Z,21.30
2023-05-23T23:08:51.946Z,21.30
2023-05-23T23:11:19.457Z,21.40
2023-05-23T23:13:47.178Z,21.30
2023-05-23T23:16:14.703Z,21.20
2023-05-23T23:18:42.265Z,21.10
2023-05-23T23:21:09.827Z,21.10
2023-05-23T23:23:38.350Z,21.00
2023-05-23T23:26:05.893Z,21.00
2023-05-23T23:28:33.361Z,20.90
2023-05-23T23:31:01.136Z,20.80
2023-05-23T23:33:28.747Z,20.80
2023-05-23T23:35:56.469Z,20.80
2023-05-23T23:38:23.927Z,20.80
2023-05-23T23:40:51.510Z,20.70
2023-05-23T23:43:19.077Z,20.70
2023-05-23T23:45:46.575Z,20.70
2023-05-23T23:48:14.911Z,20.70
2023-05-23T23:50:42.689Z,20.60
2023-05-23T23:53:10.478Z,20.60
2023-05-23T23:55:37.948Z,20.60
2023-05-23T23:58:05.565Z,20.60
